sensor_id;sensor_type;location;lat;lon;timestamp;P1;durP1;ratioP1;P2;durP2;ratioP2
59239;SDS011;45010;53.640;10.578;2022-11-20T00:00:20;1.20;;;0.82;;
59239;SDS011;45010;53.640;10.578;2022-11-20T00:03:20;0.90;;;0.60;;
59239;SDS011;45010;53.640;10.578;2022-11-20T00:06:21;0.82;;;0.70;;
59239;SDS011;45010;53.640;10.578;2022-11-20T00:09:23;0.75;;;0.60;;
59239;SDS011;45010;53.640;10.578;2022-11-20T00:12:23;2.00;;;0.80;;
59239;SDS011;45010;53.640;10.578;2022-11-20T00:15:23;1.35;;;0.70;;
59239;SDS011;45010;53.640;10.578;2022-11-20T00:18:24;1.50;;;0.80;;
59239;SDS011;45010;53.640;10.578;2022-11-20T00:21:26;1.50;;;0.70;;
59239;SDS011;45010;53.640;10.578;2022-11-20T00:24:27;0.90;;;0.73;;
59239;SDS011;45010;53.640;10.578;2022-11-20T00:27:28;1.08;;;0.90;;
59239;SDS011;45010;53.640;10.578;2022-11-20T00:30:28;2.05;;;0.70;;
59239;SDS011;45010;53.640;10.578;2022-11-20T00:33:28;1.27;;;0.70;;
59239;SDS011;45010;53.640;10.578;2022-11-20T00:36:31;0.90;;;0.60;;
59239;SDS011;45010;53.640;10.578;2022-11-20T00:39:32;0.65;;;0.47;;
59239;SDS011;45010;53.640;10.578;2022-11-20T00:42:33;0.95;;;0.60;;
59239;SDS011;45010;53.640;10.578;2022-11-20T00:45:33;0.70;;;0.70;;
59239;SDS011;45010;53.640;10.578;2022-11-20T00:48:34;2.15;;;0.90;;
59239;SDS011;45010;53.640;10.578;2022-11-20T00:51:35;1.85;;;0.80;;
59239;SDS011;45010;53.640;10.578;2022-11-20T00:54:35;1.63;;;0.90;;
59239;SDS011;45010;53.640;10.578;2022-11-20T00:57:35;0.88;;;0.60;;
59239;SDS011;45010;53.640;10.578;2022-11-20T01:00:35;1.17;;;0.90;;
59239;SDS011;45010;53.640;10.578;2022-11-20T01:03:37;2.40;;;0.70;;
59239;SDS011;45010;53.640;10.578;2022-11-20T01:06:39;0.63;;;0.60;;
59239;SDS011;45010;53.640;10.578;2022-11-20T01:09:40;1.67;;;0.70;;
59239;SDS011;45010;53.640;10.578;2022-11-20T01:12:40;0.80;;;0.60;;
59239;SDS011;45010;53.640;10.578;2022-11-20T01:15:40;0.90;;;0.57;;
59239;SDS011;45010;53.640;10.578;2022-11-20T01:18:42;0.63;;;0.60;;
59239;SDS011;45010;53.640;10.578;2022-11-20T01:21:44;1.27;;;0.65;;
59239;SDS011;45010;53.640;10.578;2022-11-20T01:24:46;1.85;;;0.80;;
59239;SDS011;45010;53.640;10.578;2022-11-20T01:27:46;0.85;;;0.60;;
59239;SDS011;45010;53.640;10.578;2022-11-20T01:30:47;1.15;;;0.60;;
59239;SDS011;45010;53.640;10.578;2022-11-20T01:33:48;1.33;;;0.77;;
59239;SDS011;45010;53.640;10.578;2022-11-20T01:36:51;0.88;;;0.55;;
59239;SDS011;45010;53.640;10.578;2022-11-20T01:39:52;0.47;;;0.47;;
59239;SDS011;45010;53.640;10.578;2022-11-20T01:42:55;1.23;;;0.82;;
59239;SDS011;45010;53.640;10.578;2022-11-20T01:46:21;0.68;;;0.63;;
59239;SDS011;45010;53.640;10.578;2022-11-20T01:49:24;1.20;;;0.73;;
59239;SDS011;45010;53.640;10.578;2022-11-20T01:52:34;0.63;;;0.50;;
59239;SDS011;45010;53.640;10.578;2022-11-20T01:55:41;1.17;;;0.70;;
59239;SDS011;45010;53.640;10.578;2022-11-20T01:58:51;1.45;;;0.68;;
59239;SDS011;45010;53.640;10.578;2022-11-20T02:01:58;0.93;;;0.70;;
59239;SDS011;45010;53.640;10.578;2022-11-20T02:05:00;0.65;;;0.52;;
59239;SDS011;45010;53.640;10.578;2022-11-20T02:08:10;1.45;;;0.60;;
59239;SDS011;45010;53.640;10.578;2022-11-20T02:11:11;1.30;;;0.80;;
59239;SDS011;45010;53.640;10.578;2022-11-20T02:14:12;0.60;;;0.50;;
59239;SDS011;45010;53.640;10.578;2022-11-20T02:17:14;0.70;;;0.70;;
59239;SDS011;45010;53.640;10.578;2022-11-20T02:20:14;1.00;;;0.80;;
59239;SDS011;45010;53.640;10.578;2022-11-20T02:23:29;0.95;;;0.50;;
59239;SDS011;45010;53.640;10.578;2022-11-20T02:27:02;1.00;;;0.80;;
59239;SDS011;45010;53.640;10.578;2022-11-20T02:30:07;0.68;;;0.55;;
59239;SDS011;45010;53.640;10.578;2022-11-20T02:33:10;1.20;;;0.73;;
59239;SDS011;45010;53.640;10.578;2022-11-20T02:36:11;0.40;;;0.40;;
59239;SDS011;45010;53.640;10.578;2022-11-20T02:39:15;0.82;;;0.50;;
59239;SDS011;45010;53.640;10.578;2022-11-20T02:42:16;1.60;;;0.90;;
59239;SDS011;45010;53.640;10.578;2022-11-20T02:45:17;4.00;;;0.60;;
59239;SDS011;45010;53.640;10.578;2022-11-20T02:48:17;4.85;;;0.80;;
59239;SDS011;45010;53.640;10.578;2022-11-20T02:51:18;0.95;;;0.60;;
59239;SDS011;45010;53.640;10.578;2022-11-20T02:54:18;1.15;;;0.70;;
59239;SDS011;45010;53.640;10.578;2022-11-20T02:57:18;0.77;;;0.68;;
59239;SDS011;45010;53.640;10.578;2022-11-20T03:00:19;2.75;;;0.75;;
59239;SDS011;45010;53.640;10.578;2022-11-20T03:03:19;1.23;;;0.73;;
59239;SDS011;45010;53.640;10.578;2022-11-20T03:06:19;3.53;;;0.70;;
59239;SDS011;45010;53.640;10.578;2022-11-20T03:09:19;0.73;;;0.50;;
59239;SDS011;45010;53.640;10.578;2022-11-20T03:12:20;0.77;;;0.63;;
59239;SDS011;45010;53.640;10.578;2022-11-20T03:15:21;1.13;;;0.63;;
59239;SDS011;45010;53.640;10.578;2022-11-20T03:18:22;0.60;;;0.50;;
59239;SDS011;45010;53.640;10.578;2022-11-20T03:21:22;1.00;;;0.63;;
59239;SDS011;45010;53.640;10.578;2022-11-20T03:24:23;1.52;;;0.60;;
59239;SDS011;45010;53.640;10.578;2022-11-20T03:27:23;0.50;;;0.50;;
59239;SDS011;45010;53.640;10.578;2022-11-20T03:30:23;0.70;;;0.50;;
59239;SDS011;45010;53.640;10.578;2022-11-20T03:33:23;0.80;;;0.50;;
59239;SDS011;45010;53.640;10.578;2022-11-20T03:36:24;0.93;;;0.60;;
59239;SDS011;45010;53.640;10.578;2022-11-20T03:39:25;0.50;;;0.43;;
59239;SDS011;45010;53.640;10.578;2022-11-20T03:42:26;0.73;;;0.60;;
59239;SDS011;45010;53.640;10.578;2022-11-20T03:45:44;0.93;;;0.50;;
59239;SDS011;45010;53.640;10.578;2022-11-20T03:48:45;1.58;;;0.70;;
59239;SDS011;45010;53.640;10.578;2022-11-20T03:51:45;0.52;;;0.52;;
59239;SDS011;45010;53.640;10.578;2022-11-20T03:54:46;0.75;;;0.57;;
59239;SDS011;45010;53.640;10.578;2022-11-20T03:57:46;0.57;;;0.43;;
59239;SDS011;45010;53.640;10.578;2022-11-20T04:00:46;0.60;;;0.57;;
59239;SDS011;45010;53.640;10.578;2022-11-20T04:03:47;0.60;;;0.57;;
59239;SDS011;45010;53.640;10.578;2022-11-20T04:06:48;0.95;;;0.70;;
59239;SDS011;45010;53.640;10.578;2022-11-20T04:09:48;0.60;;;0.60;;
59239;SDS011;45010;53.640;10.578;2022-11-20T04:12:49;0.70;;;0.60;;
59239;SDS011;45010;53.640;10.578;2022-11-20T04:15:49;1.02;;;0.68;;
59239;SDS011;45010;53.640;10.578;2022-11-20T04:18:56;0.60;;;0.60;;
59239;SDS011;45010;53.640;10.578;2022-11-20T04:21:58;0.65;;;0.57;;
59239;SDS011;45010;53.640;10.578;2022-11-20T04:24:58;0.73;;;0.50;;
59239;SDS011;45010;53.640;10.578;2022-11-20T04:27:59;0.95;;;0.50;;
59239;SDS011;45010;53.640;10.578;2022-11-20T04:31:06;0.70;;;0.60;;
59239;SDS011;45010;53.640;10.578;2022-11-20T04:34:11;0.75;;;0.60;;
59239;SDS011;45010;53.640;10.578;2022-11-20T04:37:12;1.08;;;0.60;;
59239;SDS011;45010;53.640;10.578;2022-11-20T04:40:13;0.93;;;0.57;;
59239;SDS011;45010;53.640;10.578;2022-11-20T04:43:13;0.80;;;0.60;;
59239;SDS011;45010;53.640;10.578;2022-11-20T04:46:13;0.40;;;0.40;;
59239;SDS011;45010;53.640;10.578;2022-11-20T04:49:15;0.95;;;0.57;;
59239;SDS011;45010;53.640;10.578;2022-11-20T04:52:15;0.75;;;0.55;;
59239;SDS011;45010;53.640;10.578;2022-11-20T04:55:15;0.75;;;0.50;;
59239;SDS011;45010;53.640;10.578;2022-11-20T04:58:16;0.68;;;0.60;;
59239;SDS011;45010;53.640;10.578;2022-11-20T05:01:20;1.05;;;0.68;;
59239;SDS011;45010;53.640;10.578;2022-11-20T05:04:22;0.88;;;0.60;;
59239;SDS011;45010;53.640;10.578;2022-11-20T05:07:23;0.45;;;0.30;;
59239;SDS011;45010;53.640;10.578;2022-11-20T05:10:23;1.10;;;0.47;;
59239;SDS011;45010;53.640;10.578;2022-11-20T05:13:24;0.60;;;0.50;;
59239;SDS011;45010;53.640;10.578;2022-11-20T05:16:25;1.45;;;0.60;;
59239;SDS011;45010;53.640;10.578;2022-11-20T05:19:25;1.02;;;0.63;;
59239;SDS011;45010;53.640;10.578;2022-11-20T05:22:26;1.00;;;0.47;;
59239;SDS011;45010;53.640;10.578;2022-11-20T05:25:26;0.60;;;0.50;;
59239;SDS011;45010;53.640;10.578;2022-11-20T05:28:27;0.40;;;0.40;;
59239;SDS011;45010;53.640;10.578;2022-11-20T05:31:29;0.60;;;0.60;;
59239;SDS011;45010;53.640;10.578;2022-11-20T05:34:29;0.60;;;0.50;;
59239;SDS011;45010;53.640;10.578;2022-11-20T05:37:29;0.82;;;0.55;;
59239;SDS011;45010;53.640;10.578;2022-11-20T05:40:30;0.70;;;0.40;;
59239;SDS011;45010;53.640;10.578;2022-11-20T05:43:37;0.65;;;0.50;;
59239;SDS011;45010;53.640;10.578;2022-11-20T05:46:38;0.65;;;0.50;;
59239;SDS011;45010;53.640;10.578;2022-11-20T05:49:39;0.32;;;0.30;;
59239;SDS011;45010;53.640;10.578;2022-11-20T05:52:39;0.52;;;0.50;;
59239;SDS011;45010;53.640;10.578;2022-11-20T05:55:39;0.50;;;0.50;;
59239;SDS011;45010;53.640;10.578;2022-11-20T05:58:40;0.68;;;0.50;;
59239;SDS011;45010;53.640;10.578;2022-11-20T06:01:40;0.65;;;0.43;;
59239;SDS011;45010;53.640;10.578;2022-11-20T06:04:42;0.32;;;0.32;;
59239;SDS011;45010;53.640;10.578;2022-11-20T06:07:42;0.50;;;0.50;;
59239;SDS011;45010;53.640;10.578;2022-11-20T06:10:43;1.23;;;0.63;;
59239;SDS011;45010;53.640;10.578;2022-11-20T06:13:43;0.80;;;0.50;;
59239;SDS011;45010;53.640;10.578;2022-11-20T06:16:44;1.95;;;0.50;;
59239;SDS011;45010;53.640;10.578;2022-11-20T06:19:45;1.50;;;0.57;;
59239;SDS011;45010;53.640;10.578;2022-11-20T06:22:45;0.70;;;0.50;;
59239;SDS011;45010;53.640;10.578;2022-11-20T06:25:45;0.85;;;0.50;;
59239;SDS011;45010;53.640;10.578;2022-11-20T06:28:45;1.58;;;0.60;;
59239;SDS011;45010;53.640;10.578;2022-11-20T06:31:46;1.23;;;0.60;;
59239;SDS011;45010;53.640;10.578;2022-11-20T06:34:47;1.30;;;0.60;;
59239;SDS011;45010;53.640;10.578;2022-11-20T06:37:47;1.55;;;0.40;;
59239;SDS011;45010;53.640;10.578;2022-11-20T06:40:47;1.15;;;0.50;;
59239;SDS011;45010;53.640;10.578;2022-11-20T06:43:47;0.85;;;0.52;;
59239;SDS011;45010;53.640;10.578;2022-11-20T06:46:48;2.38;;;0.70;;
59239;SDS011;45010;53.640;10.578;2022-11-20T06:49:48;3.33;;;0.50;;
59239;SDS011;45010;53.640;10.578;2022-11-20T06:52:49;0.93;;;0.50;;
59239;SDS011;45010;53.640;10.578;2022-11-20T06:55:49;1.77;;;0.50;;
59239;SDS011;45010;53.640;10.578;2022-11-20T06:58:50;1.85;;;0.82;;
59239;SDS011;45010;53.640;10.578;2022-11-20T07:01:51;1.85;;;0.47;;
59239;SDS011;45010;53.640;10.578;2022-11-20T07:04:51;0.75;;;0.68;;
59239;SDS011;45010;53.640;10.578;2022-11-20T07:07:51;5.88;;;0.70;;
59239;SDS011;45010;53.640;10.578;2022-11-20T07:10:52;2.00;;;0.63;;
59239;SDS011;45010;53.640;10.578;2022-11-20T07:13:56;1.58;;;0.60;;
59239;SDS011;45010;53.640;10.578;2022-11-20T07:16:57;0.80;;;0.50;;
59239;SDS011;45010;53.640;10.578;2022-11-20T07:19:57;1.90;;;0.43;;
59239;SDS011;45010;53.640;10.578;2022-11-20T07:22:58;1.92;;;0.73;;
59239;SDS011;45010;53.640;10.578;2022-11-20T07:26:02;1.67;;;0.75;;
59239;SDS011;45010;53.640;10.578;2022-11-20T07:29:03;1.13;;;0.47;;
59239;SDS011;45010;53.640;10.578;2022-11-20T07:32:04;1.30;;;0.63;;
59239;SDS011;45010;53.640;10.578;2022-11-20T07:35:04;1.60;;;0.50;;
59239;SDS011;45010;53.640;10.578;2022-11-20T07:38:05;1.60;;;0.60;;
59239;SDS011;45010;53.640;10.578;2022-11-20T07:41:05;2.00;;;0.63;;
59239;SDS011;45010;53.640;10.578;2022-11-20T07:44:06;1.40;;;0.60;;
59239;SDS011;45010;53.640;10.578;2022-11-20T07:47:06;0.77;;;0.68;;
59239;SDS011;45010;53.640;10.578;2022-11-20T07:50:06;5.18;;;0.63;;
59239;SDS011;45010;53.640;10.578;2022-11-20T07:53:07;0.85;;;0.50;;
59239;SDS011;45010;53.640;10.578;2022-11-20T07:56:08;2.15;;;0.57;;
59239;SDS011;45010;53.640;10.578;2022-11-20T07:59:08;3.08;;;0.55;;
59239;SDS011;45010;53.640;10.578;2022-11-20T08:02:10;2.28;;;0.77;;
59239;SDS011;45010;53.640;10.578;2022-11-20T08:05:11;3.65;;;1.15;;
59239;SDS011;45010;53.640;10.578;2022-11-20T08:08:11;4.43;;;1.38;;
59239;SDS011;45010;53.640;10.578;2022-11-20T08:11:11;6.32;;;1.13;;
59239;SDS011;45010;53.640;10.578;2022-11-20T08:14:30;3.58;;;1.02;;
59239;SDS011;45010;53.640;10.578;2022-11-20T08:17:31;5.05;;;1.20;;
59239;SDS011;45010;53.640;10.578;2022-11-20T08:20:31;3.25;;;0.88;;
59239;SDS011;45010;53.640;10.578;2022-11-20T08:23:32;5.68;;;0.93;;
59239;SDS011;45010;53.640;10.578;2022-11-20T08:26:32;3.42;;;0.90;;
59239;SDS011;45010;53.640;10.578;2022-11-20T08:29:33;1.88;;;0.70;;
59239;SDS011;45010;53.640;10.578;2022-11-20T08:32:33;1.77;;;0.93;;
59239;SDS011;45010;53.640;10.578;2022-11-20T08:35:36;2.58;;;0.70;;
59239;SDS011;45010;53.640;10.578;2022-11-20T08:38:37;2.60;;;0.75;;
59239;SDS011;45010;53.640;10.578;2022-11-20T08:41:38;2.88;;;0.70;;
59239;SDS011;45010;53.640;10.578;2022-11-20T08:44:38;1.88;;;0.70;;
59239;SDS011;45010;53.640;10.578;2022-11-20T08:47:38;2.63;;;0.60;;
59239;SDS011;45010;53.640;10.578;2022-11-20T08:50:38;1.13;;;0.70;;
59239;SDS011;45010;53.640;10.578;2022-11-20T08:53:39;1.60;;;0.75;;
59239;SDS011;45010;53.640;10.578;2022-11-20T08:56:40;2.15;;;0.63;;
59239;SDS011;45010;53.640;10.578;2022-11-20T08:59:40;2.55;;;0.70;;
59239;SDS011;45010;53.640;10.578;2022-11-20T09:02:41;1.48;;;0.70;;
59239;SDS011;45010;53.640;10.578;2022-11-20T09:05:41;2.60;;;0.73;;
59239;SDS011;45010;53.640;10.578;2022-11-20T09:08:42;2.22;;;0.77;;
59239;SDS011;45010;53.640;10.578;2022-11-20T09:11:43;1.85;;;0.60;;
59239;SDS011;45010;53.640;10.578;2022-11-20T09:14:43;2.25;;;0.70;;
59239;SDS011;45010;53.640;10.578;2022-11-20T09:17:52;1.73;;;0.50;;
59239;SDS011;45010;53.640;10.578;2022-11-20T09:20:58;1.05;;;0.60;;
59239;SDS011;45010;53.640;10.578;2022-11-20T09:23:59;1.50;;;0.52;;
59239;SDS011;45010;53.640;10.578;2022-11-20T09:27:03;2.83;;;0.70;;
59239;SDS011;45010;53.640;10.578;2022-11-20T09:30:05;1.30;;;0.70;;
59239;SDS011;45010;53.640;10.578;2022-11-20T09:33:05;2.67;;;0.82;;
59239;SDS011;45010;53.640;10.578;2022-11-20T09:36:06;1.60;;;0.93;;
59239;SDS011;45010;53.640;10.578;2022-11-20T09:39:06;1.15;;;0.60;;
59239;SDS011;45010;53.640;10.578;2022-11-20T09:52:12;2.38;;;0.80;;
59239;SDS011;45010;53.640;10.578;2022-11-20T09:55:26;0.80;;;0.68;;
59239;SDS011;45010;53.640;10.578;2022-11-20T09:58:31;1.67;;;0.75;;
59239;SDS011;45010;53.640;10.578;2022-11-20T10:01:36;3.20;;;0.70;;
59239;SDS011;45010;53.640;10.578;2022-11-20T10:04:38;1.52;;;0.80;;
59239;SDS011;45010;53.640;10.578;2022-11-20T10:07:48;2.30;;;0.80;;
59239;SDS011;45010;53.640;10.578;2022-11-20T10:11:00;1.60;;;0.52;;
59239;SDS011;45010;53.640;10.578;2022-11-20T10:14:16;2.38;;;0.70;;
59239;SDS011;45010;53.640;10.578;2022-11-20T10:20:58;2.05;;;0.70;;
59239;SDS011;45010;53.640;10.578;2022-11-20T10:31:10;1.70;;;0.50;;
59239;SDS011;45010;53.640;10.578;2022-11-20T10:37:30;0.52;;;0.40;;
59239;SDS011;45010;53.640;10.578;2022-11-20T10:40:35;0.82;;;0.60;;
59239;SDS011;45010;53.640;10.578;2022-11-20T10:43:40;0.98;;;0.55;;
59239;SDS011;45010;53.640;10.578;2022-11-20T10:46:44;0.63;;;0.50;;
59239;SDS011;45010;53.640;10.578;2022-11-20T10:49:46;1.92;;;0.70;;
59239;SDS011;45010;53.640;10.578;2022-11-20T10:56:11;1.42;;;0.80;;
59239;SDS011;45010;53.640;10.578;2022-11-20T10:59:27;0.88;;;0.50;;
59239;SDS011;45010;53.640;10.578;2022-11-20T11:02:42;1.73;;;0.50;;
59239;SDS011;45010;53.640;10.578;2022-11-20T11:05:48;1.23;;;0.60;;
59239;SDS011;45010;53.640;10.578;2022-11-20T11:08:53;1.25;;;0.68;;
59239;SDS011;45010;53.640;10.578;2022-11-20T11:11:58;1.65;;;0.57;;
59239;SDS011;45010;53.640;10.578;2022-11-20T11:14:58;2.08;;;0.70;;
59239;SDS011;45010;53.640;10.578;2022-11-20T11:17:59;2.03;;;0.65;;
59239;SDS011;45010;53.640;10.578;2022-11-20T11:21:00;1.08;;;0.63;;
59239;SDS011;45010;53.640;10.578;2022-11-20T11:24:03;0.52;;;0.40;;
59239;SDS011;45010;53.640;10.578;2022-11-20T11:27:10;2.05;;;1.10;;
59239;SDS011;45010;53.640;10.578;2022-11-20T11:30:16;0.68;;;0.55;;
59239;SDS011;45010;53.640;10.578;2022-11-20T11:33:19;1.77;;;0.52;;
59239;SDS011;45010;53.640;10.578;2022-11-20T11:36:22;1.85;;;0.40;;
59239;SDS011;45010;53.640;10.578;2022-11-20T11:39:26;1.23;;;0.80;;
59239;SDS011;45010;53.640;10.578;2022-11-20T11:42:29;1.70;;;0.60;;
59239;SDS011;45010;53.640;10.578;2022-11-20T11:45:30;0.60;;;0.50;;
59239;SDS011;45010;53.640;10.578;2022-11-20T11:48:30;1.20;;;0.43;;
59239;SDS011;45010;53.640;10.578;2022-11-20T11:55:12;2.30;;;0.68;;
59239;SDS011;45010;53.640;10.578;2022-11-20T11:58:20;2.40;;;0.50;;
59239;SDS011;45010;53.640;10.578;2022-11-20T12:01:34;1.52;;;0.65;;
59239;SDS011;45010;53.640;10.578;2022-11-20T12:04:46;1.95;;;0.50;;
59239;SDS011;45010;53.640;10.578;2022-11-20T12:07:56;1.42;;;0.50;;
59239;SDS011;45010;53.640;10.578;2022-11-20T12:11:04;1.73;;;0.70;;
59239;SDS011;45010;53.640;10.578;2022-11-20T12:17:31;1.80;;;0.50;;
59239;SDS011;45010;53.640;10.578;2022-11-20T12:20:33;1.38;;;0.47;;
59239;SDS011;45010;53.640;10.578;2022-11-20T12:30:24;2.63;;;0.73;;
59239;SDS011;45010;53.640;10.578;2022-11-20T12:33:28;1.02;;;0.50;;
59239;SDS011;45010;53.640;10.578;2022-11-20T12:36:39;2.63;;;0.40;;
59239;SDS011;45010;53.640;10.578;2022-11-20T12:39:48;2.10;;;0.60;;
59239;SDS011;45010;53.640;10.578;2022-11-20T12:42:53;2.63;;;0.40;;
59239;SDS011;45010;53.640;10.578;2022-11-20T12:53:25;3.03;;;0.50;;
59239;SDS011;45010;53.640;10.578;2022-11-20T13:06:20;0.90;;;0.40;;
59239;SDS011;45010;53.640;10.578;2022-11-20T13:09:21;1.38;;;0.70;;
59239;SDS011;45010;53.640;10.578;2022-11-20T13:12:33;0.77;;;0.38;;
59239;SDS011;45010;53.640;10.578;2022-11-20T13:16:10;2.50;;;0.40;;
59239;SDS011;45010;53.640;10.578;2022-11-20T13:19:19;0.80;;;0.40;;
59239;SDS011;45010;53.640;10.578;2022-11-20T13:22:26;0.47;;;0.40;;
59239;SDS011;45010;53.640;10.578;2022-11-20T13:25:35;0.32;;;0.32;;
59239;SDS011;45010;53.640;10.578;2022-11-20T13:28:37;0.35;;;0.30;;
59239;SDS011;45010;53.640;10.578;2022-11-20T13:31:41;0.40;;;0.30;;
59239;SDS011;45010;53.640;10.578;2022-11-20T13:34:58;0.63;;;0.40;;
59239;SDS011;45010;53.640;10.578;2022-11-20T13:38:01;1.27;;;0.40;;
59239;SDS011;45010;53.640;10.578;2022-11-20T13:41:07;1.02;;;0.25;;
59239;SDS011;45010;53.640;10.578;2022-11-20T13:44:28;0.70;;;0.40;;
59239;SDS011;45010;53.640;10.578;2022-11-20T13:47:34;0.30;;;0.30;;
59239;SDS011;45010;53.640;10.578;2022-11-20T13:57:54;0.65;;;0.40;;
59239;SDS011;45010;53.640;10.578;2022-11-20T14:00:42;0.90;;;0.40;;
59239;SDS011;45010;53.640;10.578;2022-11-20T14:03:46;0.55;;;0.40;;
59239;SDS011;45010;53.640;10.578;2022-11-20T14:06:47;0.65;;;0.45;;
59239;SDS011;45010;53.640;10.578;2022-11-20T14:09:50;0.40;;;0.30;;
59239;SDS011;45010;53.640;10.578;2022-11-20T14:12:52;1.30;;;0.50;;
59239;SDS011;45010;53.640;10.578;2022-11-20T14:15:56;1.02;;;0.40;;
59239;SDS011;45010;53.640;10.578;2022-11-20T14:18:57;1.67;;;0.38;;
59239;SDS011;45010;53.640;10.578;2022-11-20T14:22:21;0.40;;;0.40;;
59239;SDS011;45010;53.640;10.578;2022-11-20T14:25:23;0.60;;;0.40;;
59239;SDS011;45010;53.640;10.578;2022-11-20T14:28:28;0.40;;;0.38;;
59239;SDS011;45010;53.640;10.578;2022-11-20T14:31:29;0.95;;;0.40;;
59239;SDS011;45010;53.640;10.578;2022-11-20T14:34:31;0.77;;;0.40;;
59239;SDS011;45010;53.640;10.578;2022-11-20T14:37:38;0.40;;;0.30;;
59239;SDS011;45010;53.640;10.578;2022-11-20T14:40:41;1.23;;;0.30;;
59239;SDS011;45010;53.640;10.578;2022-11-20T14:43:44;1.23;;;0.35;;
59239;SDS011;45010;53.640;10.578;2022-11-20T14:46:46;3.40;;;0.52;;
59239;SDS011;45010;53.640;10.578;2022-11-20T14:49:47;0.73;;;0.40;;
59239;SDS011;45010;53.640;10.578;2022-11-20T14:52:49;2.05;;;0.43;;
59239;SDS011;45010;53.640;10.578;2022-11-20T14:56:08;1.33;;;0.47;;
59239;SDS011;45010;53.640;10.578;2022-11-20T14:59:09;2.28;;;0.57;;
59239;SDS011;45010;53.640;10.578;2022-11-20T15:02:10;1.00;;;0.40;;
59239;SDS011;45010;53.640;10.578;2022-11-20T15:05:12;0.50;;;0.47;;
59239;SDS011;45010;53.640;10.578;2022-11-20T15:08:14;0.55;;;0.40;;
59239;SDS011;45010;53.640;10.578;2022-11-20T15:11:18;0.70;;;0.40;;
59239;SDS011;45010;53.640;10.578;2022-11-20T15:14:21;1.52;;;0.40;;
59239;SDS011;45010;53.640;10.578;2022-11-20T15:17:22;0.30;;;0.30;;
59239;SDS011;45010;53.640;10.578;2022-11-20T15:20:24;2.28;;;0.50;;
59239;SDS011;45010;53.640;10.578;2022-11-20T15:23:28;0.75;;;0.30;;
59239;SDS011;45010;53.640;10.578;2022-11-20T15:26:29;0.57;;;0.30;;
59239;SDS011;45010;53.640;10.578;2022-11-20T15:29:29;1.38;;;0.55;;
59239;SDS011;45010;53.640;10.578;2022-11-20T15:32:29;0.60;;;0.40;;
59239;SDS011;45010;53.640;10.578;2022-11-20T15:35:29;0.93;;;0.30;;
59239;SDS011;45010;53.640;10.578;2022-11-20T15:38:30;0.50;;;0.43;;
59239;SDS011;45010;53.640;10.578;2022-11-20T15:41:30;1.85;;;0.40;;
59239;SDS011;45010;53.640;10.578;2022-11-20T15:44:31;2.72;;;0.40;;
59239;SDS011;45010;53.640;10.578;2022-11-20T15:47:33;0.20;;;0.20;;
59239;SDS011;45010;53.640;10.578;2022-11-20T15:50:39;0.30;;;0.30;;
59239;SDS011;45010;53.640;10.578;2022-11-20T15:54:13;0.63;;;0.40;;
59239;SDS011;45010;53.640;10.578;2022-11-20T15:57:14;0.52;;;0.38;;
59239;SDS011;45010;53.640;10.578;2022-11-20T16:00:15;1.00;;;0.40;;
59239;SDS011;45010;53.640;10.578;2022-11-20T16:03:16;0.40;;;0.40;;
59239;SDS011;45010;53.640;10.578;2022-11-20T16:06:17;0.30;;;0.30;;
59239;SDS011;45010;53.640;10.578;2022-11-20T16:09:17;0.98;;;0.40;;
59239;SDS011;45010;53.640;10.578;2022-11-20T16:12:17;1.10;;;0.40;;
59239;SDS011;45010;53.640;10.578;2022-11-20T16:15:37;1.40;;;0.40;;
59239;SDS011;45010;53.640;10.578;2022-11-20T16:18:48;1.33;;;0.30;;
59239;SDS011;45010;53.640;10.578;2022-11-20T16:21:49;0.50;;;0.43;;
59239;SDS011;45010;53.640;10.578;2022-11-20T16:24:51;0.68;;;0.35;;
59239;SDS011;45010;53.640;10.578;2022-11-20T16:27:51;0.80;;;0.40;;
59239;SDS011;45010;53.640;10.578;2022-11-20T16:30:51;0.60;;;0.50;;
59239;SDS011;45010;53.640;10.578;2022-11-20T16:33:52;0.30;;;0.25;;
59239;SDS011;45010;53.640;10.578;2022-11-20T16:36:54;0.63;;;0.40;;
59239;SDS011;45010;53.640;10.578;2022-11-20T16:39:54;1.08;;;0.50;;
59239;SDS011;45010;53.640;10.578;2022-11-20T16:42:56;0.90;;;0.45;;
59239;SDS011;45010;53.640;10.578;2022-11-20T16:45:57;0.60;;;0.35;;
59239;SDS011;45010;53.640;10.578;2022-11-20T16:52:02;0.68;;;0.35;;
59239;SDS011;45010;53.640;10.578;2022-11-20T16:55:02;0.95;;;0.50;;
59239;SDS011;45010;53.640;10.578;2022-11-20T16:58:03;0.73;;;0.40;;
59239;SDS011;45010;53.640;10.578;2022-11-20T17:01:07;0.75;;;0.60;;
59239;SDS011;45010;53.640;10.578;2022-11-20T17:04:09;0.70;;;0.40;;
59239;SDS011;45010;53.640;10.578;2022-11-20T17:07:10;1.85;;;0.45;;
59239;SDS011;45010;53.640;10.578;2022-11-20T17:10:11;2.10;;;0.65;;
59239;SDS011;45010;53.640;10.578;2022-11-20T17:13:11;2.38;;;0.63;;
59239;SDS011;45010;53.640;10.578;2022-11-20T17:16:16;2.05;;;0.50;;
59239;SDS011;45010;53.640;10.578;2022-11-20T17:19:17;3.55;;;0.80;;
59239;SDS011;45010;53.640;10.578;2022-11-20T17:22:18;1.48;;;0.65;;
59239;SDS011;45010;53.640;10.578;2022-11-20T17:25:18;2.17;;;0.80;;
59239;SDS011;45010;53.640;10.578;2022-11-20T17:28:18;2.30;;;0.70;;
59239;SDS011;45010;53.640;10.578;2022-11-20T17:31:19;3.15;;;0.68;;
59239;SDS011;45010;53.640;10.578;2022-11-20T17:34:19;2.55;;;0.90;;
59239;SDS011;45010;53.640;10.578;2022-11-20T17:37:20;2.20;;;0.77;;
59239;SDS011;45010;53.640;10.578;2022-11-20T17:40:20;1.15;;;0.70;;
59239;SDS011;45010;53.640;10.578;2022-11-20T17:43:20;3.22;;;0.70;;
59239;SDS011;45010;53.640;10.578;2022-11-20T17:46:22;2.72;;;0.70;;
59239;SDS011;45010;53.640;10.578;2022-11-20T17:49:23;2.00;;;0.80;;
59239;SDS011;45010;53.640;10.578;2022-11-20T17:52:24;2.60;;;0.63;;
59239;SDS011;45010;53.640;10.578;2022-11-20T17:55:24;3.30;;;0.80;;
59239;SDS011;45010;53.640;10.578;2022-11-20T17:58:28;2.65;;;0.70;;
59239;SDS011;45010;53.640;10.578;2022-11-20T18:01:28;2.15;;;0.80;;
59239;SDS011;45010;53.640;10.578;2022-11-20T18:04:28;2.30;;;1.00;;
59239;SDS011;45010;53.640;10.578;2022-11-20T18:07:28;1.50;;;0.95;;
59239;SDS011;45010;53.640;10.578;2022-11-20T18:10:29;1.75;;;1.10;;
59239;SDS011;45010;53.640;10.578;2022-11-20T18:13:30;1.52;;;0.80;;
59239;SDS011;45010;53.640;10.578;2022-11-20T18:16:51;2.83;;;1.00;;
59239;SDS011;45010;53.640;10.578;2022-11-20T18:19:55;1.80;;;0.95;;
59239;SDS011;45010;53.640;10.578;2022-11-20T18:22:56;3.25;;;0.82;;
59239;SDS011;45010;53.640;10.578;2022-11-20T18:25:58;1.27;;;0.90;;
59239;SDS011;45010;53.640;10.578;2022-11-20T18:28:59;2.33;;;1.10;;
59239;SDS011;45010;53.640;10.578;2022-11-20T18:32:00;2.05;;;1.27;;
59239;SDS011;45010;53.640;10.578;2022-11-20T18:35:00;2.72;;;0.80;;
59239;SDS011;45010;53.640;10.578;2022-11-20T18:38:01;3.53;;;1.00;;
59239;SDS011;45010;53.640;10.578;2022-11-20T18:41:01;4.47;;;0.90;;
59239;SDS011;45010;53.640;10.578;2022-11-20T18:44:02;3.03;;;1.10;;
59239;SDS011;45010;53.640;10.578;2022-11-20T18:47:23;2.00;;;1.10;;
59239;SDS011;45010;53.640;10.578;2022-11-20T18:50:26;2.55;;;1.15;;
59239;SDS011;45010;53.640;10.578;2022-11-20T18:53:27;1.05;;;0.90;;
59239;SDS011;45010;53.640;10.578;2022-11-20T18:56:27;1.92;;;1.00;;
59239;SDS011;45010;53.640;10.578;2022-11-20T18:59:27;1.60;;;1.00;;
59239;SDS011;45010;53.640;10.578;2022-11-20T19:02:28;1.80;;;1.20;;
59239;SDS011;45010;53.640;10.578;2022-11-20T19:05:28;2.45;;;1.00;;
59239;SDS011;45010;53.640;10.578;2022-11-20T19:08:28;1.23;;;0.95;;
59239;SDS011;45010;53.640;10.578;2022-11-20T19:11:29;2.45;;;1.00;;